sensor_id;sensor_type;location;lat;lon;timestamp;P1;durP1;ratioP1;P2;durP2;ratioP2
40074;SDS011;26529;51.530;11.754;2023-02-28T00:01:24;8.95;;;5.82;;
40074;SDS011;26529;51.530;11.754;2023-02-28T00:03:50;9.77;;;5.30;;
40074;SDS011;26529;51.530;11.754;2023-02-28T00:06:16;9.00;;;5.68;;
40074;SDS011;26529;51.530;11.754;2023-02-28T00:08:41;8.43;;;5.53;;
40074;SDS011;26529;51.530;11.754;2023-02-28T00:11:08;8.32;;;4.88;;
40074;SDS011;26529;51.530;11.754;2023-02-28T00:13:36;8.13;;;5.32;;
40074;SDS011;26529;51.530;11.754;2023-02-28T00:16:10;7.97;;;5.18;;
40074;SDS011;26529;51.530;11.754;2023-02-28T00:18:38;7.82;;;5.13;;
40074;SDS011;26529;51.530;11.754;2023-02-28T00:21:04;8.30;;;5.30;;
40074;SDS011;26529;51.530;11.754;2023-02-28T00:23:30;11.13;;;5.65;;
40074;SDS011;26529;51.530;11.754;2023-02-28T00:25:56;11.02;;;5.22;;
40074;SDS011;26529;51.530;11.754;2023-02-28T00:28:21;14.85;;;5.53;;
40074;SDS011;26529;51.530;11.754;2023-02-28T00:30:47;10.05;;;5.28;;
40074;SDS011;26529;51.530;11.754;2023-02-28T00:33:12;9.88;;;5.95;;
40074;SDS011;26529;51.530;11.754;2023-02-28T00:35:38;7.85;;;4.30;;
40074;SDS011;26529;51.530;11.754;2023-02-28T00:38:04;9.88;;;5.45;;
40074;SDS011;26529;51.530;11.754;2023-02-28T00:40:29;10.18;;;5.43;;
40074;SDS011;26529;51.530;11.754;2023-02-28T00:42:55;8.93;;;5.53;;
40074;SDS011;26529;51.530;11.754;2023-02-28T00:45:20;9.48;;;5.80;;
40074;SDS011;26529;51.530;11.754;2023-02-28T00:47:46;8.18;;;4.50;;
40074;SDS011;26529;51.530;11.754;2023-02-28T00:50:15;10.35;;;5.13;;
40074;SDS011;26529;51.530;11.754;2023-02-28T00:52:42;8.60;;;5.25;;
40074;SDS011;26529;51.530;11.754;2023-02-28T00:55:07;9.27;;;4.90;;
40074;SDS011;26529;51.530;11.754;2023-02-28T00:57:33;7.53;;;5.10;;
40074;SDS011;26529;51.530;11.754;2023-02-28T00:59:59;10.70;;;5.65;;
40074;SDS011;26529;51.530;11.754;2023-02-28T01:02:24;7.75;;;4.80;;
40074;SDS011;26529;51.530;11.754;2023-02-28T01:04:51;8.38;;;4.88;;
40074;SDS011;26529;51.530;11.754;2023-02-28T01:07:17;7.82;;;4.93;;
40074;SDS011;26529;51.530;11.754;2023-02-28T01:09:42;8.05;;;5.05;;
40074;SDS011;26529;51.530;11.754;2023-02-28T01:12:08;7.70;;;4.70;;
40074;SDS011;26529;51.530;11.754;2023-02-28T01:14:34;9.18;;;4.97;;
40074;SDS011;26529;51.530;11.754;2023-02-28T01:17:00;9.43;;;5.13;;
40074;SDS011;26529;51.530;11.754;2023-02-28T01:19:26;7.65;;;4.88;;
40074;SDS011;26529;51.530;11.754;2023-02-28T01:21:51;7.50;;;4.82;;
40074;SDS011;26529;51.530;11.754;2023-02-28T01:24:17;9.32;;;5.65;;
40074;SDS011;26529;51.530;11.754;2023-02-28T01:26:43;8.32;;;4.88;;
40074;SDS011;26529;51.530;11.754;2023-02-28T01:29:09;9.27;;;5.38;;
40074;SDS011;26529;51.530;11.754;2023-02-28T01:31:35;8.90;;;5.07;;
40074;SDS011;26529;51.530;11.754;2023-02-28T01:34:00;6.55;;;4.43;;
40074;SDS011;26529;51.530;11.754;2023-02-28T01:36:27;8.48;;;4.68;;
40074;SDS011;26529;51.530;11.754;2023-02-28T01:38:54;8.25;;;4.63;;
40074;SDS011;26529;51.530;11.754;2023-02-28T01:41:21;7.22;;;4.53;;
40074;SDS011;26529;51.530;11.754;2023-02-28T01:43:54;6.75;;;4.30;;
40074;SDS011;26529;51.530;11.754;2023-02-28T01:46:22;8.35;;;4.93;;
40074;SDS011;26529;51.530;11.754;2023-02-28T01:48:49;7.68;;;4.65;;
40074;SDS011;26529;51.530;11.754;2023-02-28T01:51:21;8.07;;;4.97;;
40074;SDS011;26529;51.530;11.754;2023-02-28T01:53:52;10.55;;;4.95;;
40074;SDS011;26529;51.530;11.754;2023-02-28T01:56:23;8.60;;;5.38;;
40074;SDS011;26529;51.530;11.754;2023-02-28T01:58:52;7.15;;;5.10;;
40074;SDS011;26529;51.530;11.754;2023-02-28T02:01:19;9.43;;;4.55;;
40074;SDS011;26529;51.530;11.754;2023-02-28T02:03:48;7.63;;;4.40;;
40074;SDS011;26529;51.530;11.754;2023-02-28T02:06:21;7.38;;;4.70;;
40074;SDS011;26529;51.530;11.754;2023-02-28T02:08:47;7.28;;;4.38;;
40074;SDS011;26529;51.530;11.754;2023-02-28T02:11:13;6.50;;;4.68;;
40074;SDS011;26529;51.530;11.754;2023-02-28T02:13:59;6.45;;;4.20;;
40074;SDS011;26529;51.530;11.754;2023-02-28T02:25:23;7.82;;;4.07;;
40074;SDS011;26529;51.530;11.754;2023-02-28T02:27:57;7.35;;;3.95;;
40074;SDS011;26529;51.530;11.754;2023-02-28T02:36:13;7.32;;;4.60;;
40074;SDS011;26529;51.530;11.754;2023-02-28T02:44:10;8.80;;;4.60;;
40074;SDS011;26529;51.530;11.754;2023-02-28T02:46:44;6.82;;;4.38;;
40074;SDS011;26529;51.530;11.754;2023-02-28T02:49:13;8.07;;;4.13;;
40074;SDS011;26529;51.530;11.754;2023-02-28T02:51:44;6.05;;;3.95;;
40074;SDS011;26529;51.530;11.754;2023-02-28T02:54:13;7.32;;;4.25;;
40074;SDS011;26529;51.530;11.754;2023-02-28T02:56:43;5.50;;;3.53;;
40074;SDS011;26529;51.530;11.754;2023-02-28T02:59:12;8.00;;;4.50;;
40074;SDS011;26529;51.530;11.754;2023-02-28T03:01:50;7.13;;;3.63;;
40074;SDS011;26529;51.530;11.754;2023-02-28T03:04:19;7.63;;;4.40;;
40074;SDS011;26529;51.530;11.754;2023-02-28T03:06:47;5.70;;;3.95;;
40074;SDS011;26529;51.530;11.754;2023-02-28T03:09:13;5.65;;;3.85;;
40074;SDS011;26529;51.530;11.754;2023-02-28T03:11:39;7.60;;;4.13;;
40074;SDS011;26529;51.530;11.754;2023-02-28T03:14:50;7.97;;;4.10;;
40074;SDS011;26529;51.530;11.754;2023-02-28T03:17:06;4.97;;;3.40;;
40074;SDS011;26529;51.530;11.754;2023-02-28T03:20:01;5.15;;;3.65;;
40074;SDS011;26529;51.530;11.754;2023-02-28T03:25:06;6.53;;;4.20;;
40074;SDS011;26529;51.530;11.754;2023-02-28T03:27:48;6.28;;;3.67;;
40074;SDS011;26529;51.530;11.754;2023-02-28T03:30:34;7.43;;;3.90;;
40074;SDS011;26529;51.530;11.754;2023-02-28T03:33:08;7.00;;;4.43;;
40074;SDS011;26529;51.530;11.754;2023-02-28T03:35:59;6.90;;;4.30;;
40074;SDS011;26529;51.530;11.754;2023-02-28T03:38:40;8.20;;;3.90;;
40074;SDS011;26529;51.530;11.754;2023-02-28T03:41:15;6.80;;;3.72;;
40074;SDS011;26529;51.530;11.754;2023-02-28T03:43:51;5.55;;;3.35;;
40074;SDS011;26529;51.530;11.754;2023-02-28T03:46:22;7.13;;;3.80;;
40074;SDS011;26529;51.530;11.754;2023-02-28T03:51:25;5.65;;;3.70;;
40074;SDS011;26529;51.530;11.754;2023-02-28T03:53:54;5.60;;;3.38;;
40074;SDS011;26529;51.530;11.754;2023-02-28T03:56:32;5.50;;;3.63;;
40074;SDS011;26529;51.530;11.754;2023-02-28T03:59:04;5.80;;;3.70;;
40074;SDS011;26529;51.530;11.754;2023-02-28T04:01:37;5.78;;;3.67;;
40074;SDS011;26529;51.530;11.754;2023-02-28T04:04:06;6.88;;;3.70;;
40074;SDS011;26529;51.530;11.754;2023-02-28T04:06:33;5.60;;;3.35;;
40074;SDS011;26529;51.530;11.754;2023-02-28T04:08:59;6.07;;;3.80;;
40074;SDS011;26529;51.530;11.754;2023-02-28T04:11:42;5.38;;;3.22;;
40074;SDS011;26529;51.530;11.754;2023-02-28T04:14:14;8.48;;;3.58;;
40074;SDS011;26529;51.530;11.754;2023-02-28T04:16:41;7.72;;;3.70;;
40074;SDS011;26529;51.530;11.754;2023-02-28T04:19:07;5.97;;;3.30;;
40074;SDS011;26529;51.530;11.754;2023-02-28T04:21:38;5.63;;;3.40;;
40074;SDS011;26529;51.530;11.754;2023-02-28T04:24:06;4.70;;;3.05;;
40074;SDS011;26529;51.530;11.754;2023-02-28T04:26:34;7.80;;;4.00;;
40074;SDS011;26529;51.530;11.754;2023-02-28T04:29:01;5.22;;;3.67;;
40074;SDS011;26529;51.530;11.754;2023-02-28T04:31:28;6.10;;;3.90;;
40074;SDS011;26529;51.530;11.754;2023-02-28T04:33:53;6.03;;;3.40;;
40074;SDS011;26529;51.530;11.754;2023-02-28T04:36:19;5.35;;;3.38;;
40074;SDS011;26529;51.530;11.754;2023-02-28T04:38:45;5.95;;;3.75;;
40074;SDS011;26529;51.530;11.754;2023-02-28T04:41:11;4.90;;;3.33;;
40074;SDS011;26529;51.530;11.754;2023-02-28T04:43:37;7.00;;;3.53;;
40074;SDS011;26529;51.530;11.754;2023-02-28T04:46:04;6.10;;;3.13;;
40074;SDS011;26529;51.530;11.754;2023-02-28T04:48:31;5.85;;;3.22;;
40074;SDS011;26529;51.530;11.754;2023-02-28T04:51:02;5.28;;;3.33;;
40074;SDS011;26529;51.530;11.754;2023-02-28T04:53:28;5.38;;;3.63;;
40074;SDS011;26529;51.530;11.754;2023-02-28T04:55:54;6.90;;;3.25;;
40074;SDS011;26529;51.530;11.754;2023-02-28T04:58:21;6.40;;;3.45;;
40074;SDS011;26529;51.530;11.754;2023-02-28T05:00:49;6.13;;;3.20;;
40074;SDS011;26529;51.530;11.754;2023-02-28T05:03:15;4.75;;;2.97;;
40074;SDS011;26529;51.530;11.754;2023-02-28T05:05:40;6.07;;;3.35;;
40074;SDS011;26529;51.530;11.754;2023-02-28T05:08:06;6.90;;;3.60;;
40074;SDS011;26529;51.530;11.754;2023-02-28T05:10:31;7.72;;;3.28;;
40074;SDS011;26529;51.530;11.754;2023-02-28T05:12:57;4.55;;;2.90;;
40074;SDS011;26529;51.530;11.754;2023-02-28T05:15:23;5.38;;;3.33;;
40074;SDS011;26529;51.530;11.754;2023-02-28T05:17:49;4.80;;;3.10;;
40074;SDS011;26529;51.530;11.754;2023-02-28T05:20:15;4.93;;;3.28;;
40074;SDS011;26529;51.530;11.754;2023-02-28T05:22:40;6.35;;;3.22;;
40074;SDS011;26529;51.530;11.754;2023-02-28T05:25:08;5.85;;;3.22;;
40074;SDS011;26529;51.530;11.754;2023-02-28T05:27:37;5.07;;;3.33;;
40074;SDS011;26529;51.530;11.754;2023-02-28T05:30:03;7.13;;;3.45;;
40074;SDS011;26529;51.530;11.754;2023-02-28T05:32:29;4.13;;;2.90;;
40074;SDS011;26529;51.530;11.754;2023-02-28T05:34:55;5.80;;;3.45;;
40074;SDS011;26529;51.530;11.754;2023-02-28T05:37:20;5.47;;;2.67;;
40074;SDS011;26529;51.530;11.754;2023-02-28T05:39:46;5.72;;;3.22;;
40074;SDS011;26529;51.530;11.754;2023-02-28T05:42:11;4.47;;;2.90;;
40074;SDS011;26529;51.530;11.754;2023-02-28T05:44:36;5.32;;;3.05;;
40074;SDS011;26529;51.530;11.754;2023-02-28T05:47:02;5.22;;;2.95;;
40074;SDS011;26529;51.530;11.754;2023-02-28T05:49:28;4.60;;;2.80;;
40074;SDS011;26529;51.530;11.754;2023-02-28T05:51:53;4.18;;;2.78;;
40074;SDS011;26529;51.530;11.754;2023-02-28T05:54:19;4.47;;;2.92;;
40074;SDS011;26529;51.530;11.754;2023-02-28T05:56:44;4.53;;;2.70;;
40074;SDS011;26529;51.530;11.754;2023-02-28T05:59:11;5.40;;;2.80;;
40074;SDS011;26529;51.530;11.754;2023-02-28T06:01:41;5.50;;;3.00;;
40074;SDS011;26529;51.530;11.754;2023-02-28T06:04:15;3.80;;;2.92;;
40074;SDS011;26529;51.530;11.754;2023-02-28T06:06:44;4.57;;;2.67;;
40074;SDS011;26529;51.530;11.754;2023-02-28T06:09:11;6.68;;;3.53;;
40074;SDS011;26529;51.530;11.754;2023-02-28T06:11:36;5.68;;;3.28;;
40074;SDS011;26529;51.530;11.754;2023-02-28T06:14:02;4.85;;;3.20;;
40074;SDS011;26529;51.530;11.754;2023-02-28T06:16:29;4.10;;;2.97;;
40074;SDS011;26529;51.530;11.754;2023-02-28T06:18:56;4.28;;;2.70;;
40074;SDS011;26529;51.530;11.754;2023-02-28T06:21:23;4.72;;;2.78;;
40074;SDS011;26529;51.530;11.754;2023-02-28T06:23:49;4.35;;;2.88;;
40074;SDS011;26529;51.530;11.754;2023-02-28T06:26:15;4.40;;;3.10;;
40074;SDS011;26529;51.530;11.754;2023-02-28T06:28:41;4.47;;;2.78;;
40074;SDS011;26529;51.530;11.754;2023-02-28T06:31:07;4.25;;;3.28;;
40074;SDS011;26529;51.530;11.754;2023-02-28T06:33:38;6.32;;;3.30;;
40074;SDS011;26529;51.530;11.754;2023-02-28T06:36:05;8.82;;;3.25;;
40074;SDS011;26529;51.530;11.754;2023-02-28T06:38:31;5.47;;;3.10;;
40074;SDS011;26529;51.530;11.754;2023-02-28T06:40:58;8.45;;;2.65;;
40074;SDS011;26529;51.530;11.754;2023-02-28T06:43:25;9.00;;;3.20;;
40074;SDS011;26529;51.530;11.754;2023-02-28T06:45:57;7.95;;;3.78;;
40074;SDS011;26529;51.530;11.754;2023-02-28T06:48:24;7.93;;;3.25;;
40074;SDS011;26529;51.530;11.754;2023-02-28T06:50:51;8.60;;;3.55;;
40074;SDS011;26529;51.530;11.754;2023-02-28T06:53:16;7.55;;;3.28;;
40074;SDS011;26529;51.530;11.754;2023-02-28T06:55:41;9.27;;;3.30;;
40074;SDS011;26529;51.530;11.754;2023-02-28T06:58:07;10.10;;;3.00;;
40074;SDS011;26529;51.530;11.754;2023-02-28T07:00:45;8.75;;;3.63;;
40074;SDS011;26529;51.530;11.754;2023-02-28T07:03:11;9.25;;;3.65;;
40074;SDS011;26529;51.530;11.754;2023-02-28T07:05:38;7.63;;;3.08;;
40074;SDS011;26529;51.530;11.754;2023-02-28T07:08:04;8.68;;;3.15;;
40074;SDS011;26529;51.530;11.754;2023-02-28T07:10:31;8.93;;;2.95;;
40074;SDS011;26529;51.530;11.754;2023-02-28T07:13:03;15.70;;;3.83;;
40074;SDS011;26529;51.530;11.754;2023-02-28T07:15:29;9.88;;;3.45;;
40074;SDS011;26529;51.530;11.754;2023-02-28T07:17:54;8.65;;;2.88;;
40074;SDS011;26529;51.530;11.754;2023-02-28T07:20:21;10.75;;;3.42;;
40074;SDS011;26529;51.530;11.754;2023-02-28T07:22:48;12.13;;;4.13;;
40074;SDS011;26529;51.530;11.754;2023-02-28T07:25:20;10.48;;;3.88;;
40074;SDS011;26529;51.530;11.754;2023-02-28T07:27:50;14.23;;;4.25;;
40074;SDS011;26529;51.530;11.754;2023-02-28T07:30:16;10.15;;;3.35;;
40074;SDS011;26529;51.530;11.754;2023-02-28T07:32:41;18.80;;;4.28;;
40074;SDS011;26529;51.530;11.754;2023-02-28T07:35:07;15.88;;;3.45;;
40074;SDS011;26529;51.530;11.754;2023-02-28T07:37:33;10.43;;;3.13;;
40074;SDS011;26529;51.530;11.754;2023-02-28T07:40:05;18.45;;;3.78;;
40074;SDS011;26529;51.530;11.754;2023-02-28T07:42:35;15.70;;;4.05;;
40074;SDS011;26529;51.530;11.754;2023-02-28T07:45:03;12.70;;;3.45;;
40074;SDS011;26529;51.530;11.754;2023-02-28T07:47:29;9.98;;;3.40;;
40074;SDS011;26529;51.530;11.754;2023-02-28T07:49:56;10.75;;;3.30;;
40074;SDS011;26529;51.530;11.754;2023-02-28T07:52:22;11.48;;;3.63;;
40074;SDS011;26529;51.530;11.754;2023-02-28T07:54:49;19.67;;;3.85;;
40074;SDS011;26529;51.530;11.754;2023-02-28T07:57:15;12.93;;;3.78;;
40074;SDS011;26529;51.530;11.754;2023-02-28T07:59:41;13.32;;;3.15;;
40074;SDS011;26529;51.530;11.754;2023-02-28T08:02:06;11.48;;;3.45;;
40074;SDS011;26529;51.530;11.754;2023-02-28T08:04:32;11.05;;;3.35;;
40074;SDS011;26529;51.530;11.754;2023-02-28T08:06:58;14.52;;;3.75;;
40074;SDS011;26529;51.530;11.754;2023-02-28T08:09:23;8.20;;;2.78;;
40074;SDS011;26529;51.530;11.754;2023-02-28T08:11:49;17.63;;;3.40;;
40074;SDS011;26529;51.530;11.754;2023-02-28T08:14:15;11.63;;;3.42;;
40074;SDS011;26529;51.530;11.754;2023-02-28T08:16:40;19.30;;;3.75;;
40074;SDS011;26529;51.530;11.754;2023-02-28T08:19:08;18.42;;;3.65;;
40074;SDS011;26529;51.530;11.754;2023-02-28T08:21:34;16.83;;;3.50;;
40074;SDS011;26529;51.530;11.754;2023-02-28T08:23:59;14.32;;;3.42;;
40074;SDS011;26529;51.530;11.754;2023-02-28T08:26:25;18.02;;;3.88;;
40074;SDS011;26529;51.530;11.754;2023-02-28T08:28:51;17.63;;;3.55;;
40074;SDS011;26529;51.530;11.754;2023-02-28T08:31:17;16.45;;;4.00;;
40074;SDS011;26529;51.530;11.754;2023-02-28T08:33:43;13.02;;;2.80;;
40074;SDS011;26529;51.530;11.754;2023-02-28T08:36:09;16.13;;;3.38;;
40074;SDS011;26529;51.530;11.754;2023-02-28T08:38:36;14.75;;;4.28;;
40074;SDS011;26529;51.530;11.754;2023-02-28T08:41:03;14.27;;;3.88;;
40074;SDS011;26529;51.530;11.754;2023-02-28T08:43:32;12.35;;;3.53;;
40074;SDS011;26529;51.530;11.754;2023-02-28T08:45:59;18.60;;;4.28;;
40074;SDS011;26529;51.530;11.754;2023-02-28T08:48:25;8.77;;;3.60;;
40074;SDS011;26529;51.530;11.754;2023-02-28T08:51:13;11.32;;;3.17;;
40074;SDS011;26529;51.530;11.754;2023-02-28T08:53:44;12.18;;;3.85;;
40074;SDS011;26529;51.530;11.754;2023-02-28T08:56:11;9.43;;;3.03;;
40074;SDS011;26529;51.530;11.754;2023-02-28T08:58:39;14.05;;;3.10;;
40074;SDS011;26529;51.530;11.754;2023-02-28T09:01:24;10.30;;;3.70;;
40074;SDS011;26529;51.530;11.754;2023-02-28T09:03:54;18.13;;;2.85;;
40074;SDS011;26529;51.530;11.754;2023-02-28T09:06:22;10.02;;;2.88;;
40074;SDS011;26529;51.530;11.754;2023-02-28T09:08:49;9.25;;;2.80;;
40074;SDS011;26529;51.530;11.754;2023-02-28T09:11:14;7.68;;;3.03;;
40074;SDS011;26529;51.530;11.754;2023-02-28T09:13:40;8.35;;;3.47;;
40074;SDS011;26529;51.530;11.754;2023-02-28T09:16:07;7.07;;;2.80;;
40074;SDS011;26529;51.530;11.754;2023-02-28T09:18:35;10.55;;;3.45;;
40074;SDS011;26529;51.530;11.754;2023-02-28T09:21:05;7.18;;;2.78;;
40074;SDS011;26529;51.530;11.754;2023-02-28T09:23:32;12.35;;;2.97;;
40074;SDS011;26529;51.530;11.754;2023-02-28T09:25:57;11.35;;;3.03;;
40074;SDS011;26529;51.530;11.754;2023-02-28T09:28:23;9.27;;;2.80;;
40074;SDS011;26529;51.530;11.754;2023-02-28T09:30:50;13.57;;;3.30;;
40074;SDS011;26529;51.530;11.754;2023-02-28T09:33:17;12.88;;;2.30;;
40074;SDS011;26529;51.530;11.754;2023-02-28T09:35:46;13.60;;;2.97;;
40074;SDS011;26529;51.530;11.754;2023-02-28T09:38:15;12.75;;;2.65;;
40074;SDS011;26529;51.530;11.754;2023-02-28T09:41:24;12.68;;;3.30;;
40074;SDS011;26529;51.530;11.754;2023-02-28T09:43:37;11.18;;;3.03;;
40074;SDS011;26529;51.530;11.754;2023-02-28T09:48:44;9.38;;;3.17;;
40074;SDS011;26529;51.530;11.754;2023-02-28T09:53:59;13.00;;;3.85;;
40074;SDS011;26529;51.530;11.754;2023-02-28T09:56:33;8.70;;;2.58;;
40074;SDS011;26529;51.530;11.754;2023-02-28T10:01:44;11.27;;;3.10;;
40074;SDS011;26529;51.530;11.754;2023-02-28T10:07:10;12.93;;;3.22;;
40074;SDS011;26529;51.530;11.754;2023-02-28T10:09:57;11.50;;;3.72;;
40074;SDS011;26529;51.530;11.754;2023-02-28T10:12:27;13.68;;;3.20;;
40074;SDS011;26529;51.530;11.754;2023-02-28T10:14:55;7.22;;;3.15;;
40074;SDS011;26529;51.530;11.754;2023-02-28T10:17:25;12.70;;;3.33;;
40074;SDS011;26529;51.530;11.754;2023-02-28T10:19:59;13.93;;;3.70;;
40074;SDS011;26529;51.530;11.754;2023-02-28T10:25:24;10.25;;;3.00;;
40074;SDS011;26529;51.530;11.754;2023-02-28T10:27:57;5.32;;;2.80;;
40074;SDS011;26529;51.530;11.754;2023-02-28T10:30:30;8.68;;;3.40;;
40074;SDS011;26529;51.530;11.754;2023-02-28T10:32:56;6.05;;;3.05;;
40074;SDS011;26529;51.530;11.754;2023-02-28T10:35:25;7.38;;;3.20;;
40074;SDS011;26529;51.530;11.754;2023-02-28T10:37:53;8.52;;;3.17;;
40074;SDS011;26529;51.530;11.754;2023-02-28T10:42:57;7.70;;;3.42;;
40074;SDS011;26529;51.530;11.754;2023-02-28T10:45:24;10.43;;;3.30;;
40074;SDS011;26529;51.530;11.754;2023-02-28T10:47:52;6.50;;;3.03;;
40074;SDS011;26529;51.530;11.754;2023-02-28T10:50:27;6.43;;;3.17;;
40074;SDS011;26529;51.530;11.754;2023-02-28T10:58:27;13.70;;;4.10;;
40074;SDS011;26529;51.530;11.754;2023-02-28T11:00:55;6.63;;;3.35;;
40074;SDS011;26529;51.530;11.754;2023-02-28T11:03:23;6.85;;;3.33;;
40074;SDS011;26529;51.530;11.754;2023-02-28T11:06:03;6.75;;;3.08;;
40074;SDS011;26529;51.530;11.754;2023-02-28T11:08:31;7.70;;;3.53;;
40074;SDS011;26529;51.530;11.754;2023-02-28T11:11:02;10.98;;;3.60;;
40074;SDS011;26529;51.530;11.754;2023-02-28T11:13:35;5.22;;;3.17;;
40074;SDS011;26529;51.530;11.754;2023-02-28T11:16:04;7.22;;;3.55;;
40074;SDS011;26529;51.530;11.754;2023-02-28T11:21:04;6.97;;;3.53;;
40074;SDS011;26529;51.530;11.754;2023-02-28T11:23:30;8.95;;;3.53;;
40074;SDS011;26529;51.530;11.754;2023-02-28T11:26:03;7.68;;;3.40;;
40074;SDS011;26529;51.530;11.754;2023-02-28T11:28:33;8.55;;;3.45;;
40074;SDS011;26529;51.530;11.754;2023-02-28T11:31:03;4.95;;;3.17;;
40074;SDS011;26529;51.530;11.754;2023-02-28T11:33:29;7.53;;;4.18;;
40074;SDS011;26529;51.530;11.754;2023-02-28T11:36:15;7.20;;;3.33;;
40074;SDS011;26529;51.530;11.754;2023-02-28T11:38:50;6.43;;;3.00;;
40074;SDS011;26529;51.530;11.754;2023-02-28T11:46:41;6.97;;;3.90;;
40074;SDS011;26529;51.530;11.754;2023-02-28T11:49:17;4.80;;;3.53;;
40074;SDS011;26529;51.530;11.754;2023-02-28T11:54:27;10.27;;;4.00;;
40074;SDS011;26529;51.530;11.754;2023-02-28T11:56:57;6.85;;;3.58;;
40074;SDS011;26529;51.530;11.754;2023-02-28T12:02:20;8.00;;;3.97;;
40074;SDS011;26529;51.530;11.754;2023-02-28T12:08:03;7.32;;;4.07;;
40074;SDS011;26529;51.530;11.754;2023-02-28T12:11:02;7.22;;;3.88;;
40074;SDS011;26529;51.530;11.754;2023-02-28T12:14:02;7.85;;;4.28;;
40074;SDS011;26529;51.530;11.754;2023-02-28T12:16:59;6.57;;;3.85;;
40074;SDS011;26529;51.530;11.754;2023-02-28T12:22:44;6.60;;;4.00;;
40074;SDS011;26529;51.530;11.754;2023-02-28T12:28:14;9.38;;;5.10;;
40074;SDS011;26529;51.530;11.754;2023-02-28T12:31:20;11.27;;;4.38;;
40074;SDS011;26529;51.530;11.754;2023-02-28T12:33:59;6.78;;;3.85;;
40074;SDS011;26529;51.530;11.754;2023-02-28T12:36:30;10.40;;;3.97;;
40074;SDS011;26529;51.530;11.754;2023-02-28T12:39:00;7.80;;;4.03;;
40074;SDS011;26529;51.530;11.754;2023-02-28T12:44:17;6.53;;;3.97;;
40074;SDS011;26529;51.530;11.754;2023-02-28T12:46:48;8.70;;;4.00;;
40074;SDS011;26529;51.530;11.754;2023-02-28T12:49:21;8.07;;;4.35;;
40074;SDS011;26529;51.530;11.754;2023-02-28T12:51:52;8.40;;;4.32;;
40074;SDS011;26529;51.530;11.754;2023-02-28T12:54:25;9.23;;;4.53;;
40074;SDS011;26529;51.530;11.754;2023-02-28T12:57:18;11.18;;;4.40;;
40074;SDS011;26529;51.530;11.754;2023-02-28T13:10:48;7.00;;;4.13;;
40074;SDS011;26529;51.530;11.754;2023-02-28T13:13:23;7.88;;;4.38;;
40074;SDS011;26529;51.530;11.754;2023-02-28T13:16:01;6.97;;;4.50;;
40074;SDS011;26529;51.530;11.754;2023-02-28T13:18:39;6.45;;;3.55;;
40074;SDS011;26529;51.530;11.754;2023-02-28T13:21:09;7.78;;;3.97;;
40074;SDS011;26529;51.530;11.754;2023-02-28T13:26:21;7.03;;;4.10;;
40074;SDS011;26529;51.530;11.754;2023-02-28T13:31:13;9.23;;;4.53;;
40074;SDS011;26529;51.530;11.754;2023-02-28T13:34:21;7.60;;;4.10;;
40074;SDS011;26529;51.530;11.754;2023-02-28T13:36:37;6.47;;;3.63;;
40074;SDS011;26529;51.530;11.754;2023-02-28T13:39:03;6.38;;;4.15;;
40074;SDS011;26529;51.530;11.754;2023-02-28T13:42:21;6.10;;;4.20;;
40074;SDS011;26529;51.530;11.754;2023-02-28T13:47:32;9.15;;;4.50;;
40074;SDS011;26529;51.530;11.754;2023-02-28T14:01:33;5.90;;;4.28;;
40074;SDS011;26529;51.530;11.754;2023-02-28T14:04:29;10.13;;;4.38;;
40074;SDS011;26529;51.530;11.754;2023-02-28T14:07:04;11.05;;;4.78;;
40074;SDS011;26529;51.530;11.754;2023-02-28T14:09:34;8.18;;;4.40;;
40074;SDS011;26529;51.530;11.754;2023-02-28T14:17:51;9.18;;;4.28;;
40074;SDS011;26529;51.530;11.754;2023-02-28T14:20:18;6.57;;;3.97;;
40074;SDS011;26529;51.530;11.754;2023-02-28T14:28:36;6.22;;;4.28;;
40074;SDS011;26529;51.530;11.754;2023-02-28T14:31:16;7.00;;;4.50;;
40074;SDS011;26529;51.530;11.754;2023-02-28T14:34:04;6.53;;;3.95;;
40074;SDS011;26529;51.530;11.754;2023-02-28T14:36:42;6.95;;;4.05;;
40074;SDS011;26529;51.530;11.754;2023-02-28T14:39:14;5.60;;;4.13;;
40074;SDS011;26529;51.530;11.754;2023-02-28T14:41:44;7.15;;;4.30;;
40074;SDS011;26529;51.530;11.754;2023-02-28T14:44:14;7.55;;;4.25;;
40074;SDS011;26529;51.530;11.754;2023-02-28T14:46:46;8.77;;;4.47;;
40074;SDS011;26529;51.530;11.754;2023-02-28T14:49:19;5.45;;;3.90;;
40074;SDS011;26529;51.530;11.754;2023-02-28T14:51:47;7.07;;;4.63;;
40074;SDS011;26529;51.530;11.754;2023-02-28T14:54:15;6.63;;;4.20;;
40074;SDS011;26529;51.530;11.754;2023-02-28T14:56:49;6.65;;;4.50;;
40074;SDS011;26529;51.530;11.754;2023-02-28T14:59:26;6.03;;;3.70;;
40074;SDS011;26529;51.530;11.754;2023-02-28T15:04:41;6.55;;;3.97;;
40074;SDS011;26529;51.530;11.754;2023-02-28T15:07:10;5.97;;;3.75;;
40074;SDS011;26529;51.530;11.754;2023-02-28T15:09:39;5.45;;;3.72;;
40074;SDS011;26529;51.530;11.754;2023-02-28T15:12:05;4.68;;;3.60;;
40074;SDS011;26529;51.530;11.754;2023-02-28T15:14:31;6.25;;;4.07;;
40074;SDS011;26529;51.530;11.754;2023-02-28T15:16:59;7.53;;;4.40;;
40074;SDS011;26529;51.530;11.754;2023-02-28T15:19:31;5.18;;;3.92;;
40074;SDS011;26529;51.530;11.754;2023-02-28T15:22:00;5.20;;;3.97;;
40074;SDS011;26529;51.530;11.754;2023-02-28T15:24:49;6.18;;;3.80;;
40074;SDS011;26529;51.530;11.754;2023-02-28T15:27:42;4.93;;;3.67;;
40074;SDS011;26529;51.530;11.754;2023-02-28T15:30:08;7.35;;;3.78;;
40074;SDS011;26529;51.530;11.754;2023-02-28T15:32:40;6.60;;;3.90;;
40074;SDS011;26529;51.530;11.754;2023-02-28T15:35:20;4.35;;;3.50;;
40074;SDS011;26529;51.530;11.754;2023-02-28T15:37:53;5.80;;;3.88;;
40074;SDS011;26529;51.530;11.754;2023-02-28T15:43:04;6.35;;;4.20;;
40074;SDS011;26529;51.530;11.754;2023-02-28T15:48:13;6.07;;;4.43;;
40074;SDS011;26529;51.530;11.754;2023-02-28T15:50:49;7.47;;;3.85;;
40074;SDS011;26529;51.530;11.754;2023-02-28T15:53:21;5.38;;;3.97;;
40074;SDS011;26529;51.530;11.754;2023-02-28T15:55:54;4.75;;;3.55;;
40074;SDS011;26529;51.530;11.754;2023-02-28T15:58:24;4.78;;;3.53;;
40074;SDS011;26529;51.530;11.754;2023-02-28T16:01:00;5.13;;;3.65;;
40074;SDS011;26529;51.530;11.754;2023-02-28T16:03:48;5.03;;;3.78;;
40074;SDS011;26529;51.530;11.754;2023-02-28T16:08:41;10.57;;;3.30;;
40074;SDS011;26529;51.530;11.754;2023-02-28T16:11:08;12.07;;;4.07;;
40074;SDS011;26529;51.530;11.754;2023-02-28T16:13:35;6.60;;;3.60;;
40074;SDS011;26529;51.530;11.754;2023-02-28T16:16:00;7.78;;;3.55;;
40074;SDS011;26529;51.530;11.754;2023-02-28T16:18:26;7.20;;;3.50;;
40074;SDS011;26529;51.530;11.754;2023-02-28T16:20:52;7.03;;;3.97;;
40074;SDS011;26529;51.530;11.754;2023-02-28T16:23:17;8.27;;;3.88;;
40074;SDS011;26529;51.530;11.754;2023-02-28T16:25:43;11.90;;;4.32;;
40074;SDS011;26529;51.530;11.754;2023-02-28T16:30:56;9.90;;;3.90;;
40074;SDS011;26529;51.530;11.754;2023-02-28T16:33:21;11.15;;;3.53;;
40074;SDS011;26529;51.530;11.754;2023-02-28T16:35:47;12.13;;;4.07;;
40074;SDS011;26529;51.530;11.754;2023-02-28T16:38:12;17.85;;;4.88;;
40074;SDS011;26529;51.530;11.754;2023-02-28T16:40:38;9.98;;;3.55;;
40074;SDS011;26529;51.530;11.754;2023-02-28T16:43:25;12.65;;;3.72;;
40074;SDS011;26529;51.530;11.754;2023-02-28T16:45:56;14.55;;;4.07;;
40074;SDS011;26529;51.530;11.754;2023-02-28T16:48:26;14.00;;;4.22;;
40074;SDS011;26529;51.530;11.754;2023-02-28T16:50:51;11.40;;;3.95;;
40074;SDS011;26529;51.530;11.754;2023-02-28T16:53:17;12.82;;;4.00;;
40074;SDS011;26529;51.530;11.754;2023-02-28T16:55:42;16.48;;;3.83;;